createdAt,value
2017-12-10T00:00:01.560Z,71.50
2017-12-10T00:00:38.492Z,71.40
2017-12-10T00:01:11.851Z,72.10
2017-12-10T00:01:44.686Z,71.70
2017-12-10T00:02:17.683Z,71.70
2017-12-10T00:02:50.691Z,71.70
2017-12-10T00:03:24.355Z,71.70
2017-12-10T00:03:58.011Z,71.70
2017-12-10T00:04:31.007Z,71.70
2017-12-10T00:05:04.005Z,71.70
2017-12-10T00:05:37.339Z,71.70
2017-12-10T00:06:10.675Z,71.70
2017-12-10T00:06:44.356Z,72.00
2017-12-10T00:07:18.008Z,72.00
2017-12-10T00:07:52.439Z,71.90
2017-12-10T00:08:25.761Z,71.80
2017-12-10T00:08:58.755Z,71.80
2017-12-10T00:09:31.754Z,72.10
2017-12-10T00:10:05.854Z,71.90
2017-12-10T00:10:39.612Z,72.00
2017-12-10T00:11:12.606Z,72.00
2017-12-10T00:11:46.708Z,72.20
2017-12-10T00:12:20.458Z,72.00
2017-12-10T00:12:53.785Z,72.00
2017-12-10T00:13:27.543Z,71.90
2017-12-10T00:14:00.531Z,72.40
2017-12-10T00:14:34.212Z,71.90
2017-12-10T00:15:07.538Z,71.90
2017-12-10T00:15:40.531Z,72.10
2017-12-10T00:16:13.852Z,72.30
2017-12-10T00:16:47.208Z,72.30
2017-12-10T00:17:20.204Z,72.60
2017-12-10T00:17:53.531Z,72.50
2017-12-10T00:18:27.107Z,72.40
2017-12-10T00:19:01.530Z,72.30
2017-12-10T00:19:34.531Z,72.30
2017-12-10T00:20:07.847Z,72.30
2017-12-10T00:20:40.843Z,72.30
2017-12-10T00:21:14.178Z,72.40
2017-12-10T00:21:47.287Z,72.60
2017-12-10T00:22:21.743Z,72.40
2017-12-10T00:22:55.707Z,72.40
2017-12-10T00:23:29.362Z,72.20
2017-12-10T00:24:02.359Z,71.90
2017-12-10T00:24:36.120Z,72.10
2017-12-10T00:25:09.458Z,72.10
2017-12-10T00:25:42.785Z,72.00
2017-12-10T00:26:15.781Z,71.70
2017-12-10T00:26:49.885Z,71.80
2017-12-10T00:27:23.999Z,72.10
2017-12-10T00:27:57.345Z,71.90
2017-12-10T00:28:30.678Z,72.00
2017-12-10T00:29:03.672Z,72.00
2017-12-10T00:29:37.006Z,72.20
2017-12-10T00:30:11.436Z,72.20
2017-12-10T00:30:44.451Z,72.30
2017-12-10T00:31:17.778Z,72.30
2017-12-10T00:31:51.440Z,72.20
2017-12-10T00:32:24.467Z,72.20
2017-12-10T00:32:57.461Z,72.30
2017-12-10T00:33:30.794Z,72.10
2017-12-10T00:34:04.889Z,72.30
2017-12-10T00:34:39.760Z,72.20
2017-12-10T00:35:13.083Z,72.10
2017-12-10T00:35:46.847Z,71.70
2017-12-10T00:36:19.844Z,71.70
2017-12-10T00:36:53.930Z,71.70
2017-12-10T00:37:26.954Z,71.60
2017-12-10T00:37:59.952Z,71.90
2017-12-10T00:38:33.266Z,71.80
2017-12-10T00:39:06.262Z,71.70
2017-12-10T00:39:39.918Z,71.80
2017-12-10T00:40:13.243Z,71.70
2017-12-10T00:40:46.260Z,71.70
2017-12-10T00:41:19.254Z,71.70
2017-12-10T00:41:52.582Z,71.60
2017-12-10T00:42:25.584Z,71.50
2017-12-10T00:42:58.609Z,71.60
2017-12-10T00:43:31.607Z,71.70
2017-12-10T00:44:04.587Z,71.70
2017-12-10T00:44:37.595Z,71.80
2017-12-10T00:45:10.592Z,71.70
2017-12-10T00:45:44.354Z,71.40
2017-12-10T00:46:17.673Z,71.40
2017-12-10T00:46:52.082Z,71.10
2017-12-10T00:47:25.076Z,71.10
2017-12-10T00:47:58.091Z,71.10
2017-12-10T00:48:31.099Z,71.10
2017-12-10T00:49:05.203Z,71.00
2017-12-10T00:49:38.207Z,71.00
2017-12-10T00:50:11.204Z,71.30
2017-12-10T00:50:44.524Z,71.90
2017-12-10T00:51:18.297Z,70.60
2017-12-10T00:51:51.619Z,70.60
2017-12-10T00:52:24.629Z,70.50
2017-12-10T00:52:57.641Z,71.10
2017-12-10T00:53:31.766Z,71.20
2017-12-10T00:54:04.754Z,71.20
2017-12-10T00:54:37.758Z,71.20
2017-12-10T00:55:10.855Z,71.30
2017-12-10T00:55:44.184Z,71.40
2017-12-10T00:56:17.183Z,71.40
2017-12-10T00:56:50.171Z,71.20
2017-12-10T00:57:23.167Z,71.10
2017-12-10T00:57:57.258Z,71.30
2017-12-10T00:58:31.016Z,71.20
2017-12-10T00:59:04.034Z,71.10
2017-12-10T00:59:37.791Z,71.20
2017-12-10T01:00:10.790Z,71.30
2017-12-10T01:00:44.633Z,71.40
2017-12-10T01:01:17.975Z,71.10
2017-12-10T01:01:52.406Z,71.20
2017-12-10T01:02:25.729Z,71.10
2017-12-10T01:02:59.387Z,71.00
2017-12-10T01:03:32.702Z,70.90
2017-12-10T01:04:06.050Z,70.80
2017-12-10T01:04:39.715Z,70.90
2017-12-10T01:05:13.055Z,71.10
2017-12-10T01:05:46.051Z,71.20
2017-12-10T01:06:19.806Z,71.20
2017-12-10T01:06:53.151Z,71.10
2017-12-10T01:07:26.144Z,70.90
2017-12-10T01:07:59.130Z,71.00
2017-12-10T01:08:32.799Z,71.20
2017-12-10T01:09:05.827Z,71.10
2017-12-10T01:09:39.181Z,71.10
2017-12-10T01:10:12.170Z,71.10
2017-12-10T01:10:45.160Z,70.90
2017-12-10T01:11:18.482Z,70.90
2017-12-10T01:11:51.799Z,70.60
2017-12-10T01:12:25.120Z,70.70
2017-12-10T01:12:58.881Z,70.90
2017-12-10T01:13:32.205Z,70.90
2017-12-10T01:14:05.198Z,70.90
2017-12-10T01:14:38.546Z,70.90
2017-12-10T01:15:12.342Z,71.20
2017-12-10T01:15:46.098Z,71.10
2017-12-10T01:16:19.103Z,71.10
2017-12-10T01:16:52.866Z,71.40
2017-12-10T01:17:26.193Z,71.30
2017-12-10T01:17:59.186Z,71.20
2017-12-10T01:18:32.270Z,70.90
2017-12-10T01:19:05.371Z,70.60
2017-12-10T01:19:38.364Z,70.80
2017-12-10T01:20:12.502Z,71.00
2017-12-10T01:20:45.491Z,70.80
2017-12-10T01:21:18.822Z,70.80
2017-12-10T01:21:52.581Z,70.80
2017-12-10T01:22:25.705Z,70.70
2017-12-10T01:22:59.037Z,70.90
2017-12-10T01:23:32.037Z,71.10
2017-12-10T01:24:05.396Z,70.90
2017-12-10T01:24:38.717Z,70.90
2017-12-10T01:25:12.514Z,70.80
2017-12-10T01:25:46.281Z,70.80
2017-12-10T01:26:19.285Z,70.80
2017-12-10T01:26:52.281Z,70.60
2017-12-10T01:27:25.617Z,71.40
2017-12-10T01:28:00.067Z,70.80
2017-12-10T01:28:33.074Z,70.50
2017-12-10T01:29:06.069Z,70.50
2017-12-10T01:29:39.062Z,70.50
2017-12-10T01:30:13.284Z,70.80
2017-12-10T01:30:46.311Z,70.80
2017-12-10T01:31:19.316Z,71.10
2017-12-10T01:31:52.318Z,71.10
2017-12-10T01:32:25.644Z,70.70
2017-12-10T01:32:58.850Z,70.40
2017-12-10T01:33:31.851Z,70.40
2017-12-10T01:34:04.835Z,70.30
2017-12-10T01:34:37.851Z,70.30
2017-12-10T01:35:10.879Z,70.50
2017-12-10T01:35:44.821Z,70.80
2017-12-10T01:36:17.827Z,70.80
2017-12-10T01:36:50.827Z,70.80
2017-12-10T01:37:24.014Z,70.60
2017-12-10T01:37:57.027Z,70.50
2017-12-10T01:38:31.119Z,70.80
2017-12-10T01:39:04.129Z,70.80
2017-12-10T01:39:37.126Z,70.60
2017-12-10T01:40:10.124Z,70.70
2017-12-10T01:40:43.141Z,70.40
2017-12-10T01:41:16.138Z,70.20
2017-12-10T01:41:49.127Z,70.30
2017-12-10T01:42:22.119Z,70.20
2017-12-10T01:42:55.104Z,70.30
2017-12-10T01:43:28.104Z,70.30
2017-12-10T01:44:01.102Z,71.10
2017-12-10T01:44:34.086Z,70.40
2017-12-10T01:45:07.097Z,70.30
2017-12-10T01:45:40.092Z,70.10
2017-12-10T01:46:13.867Z,70.20
2017-12-10T01:46:46.874Z,70.20
2017-12-10T01:47:19.870Z,70.20
2017-12-10T01:47:52.867Z,70.10
2017-12-10T01:48:25.862Z,70.50
2017-12-10T01:48:58.846Z,69.80
2017-12-10T01:49:32.650Z,70.00
2017-12-10T01:50:05.655Z,70.00
2017-12-10T01:50:38.649Z,70.00
2017-12-10T01:51:11.666Z,69.70
2017-12-10T01:51:45.429Z,70.00
2017-12-10T01:52:18.424Z,70.00
2017-12-10T01:52:52.191Z,70.10
2017-12-10T01:53:25.202Z,70.10
2017-12-10T01:53:58.230Z,70.10
2017-12-10T01:54:31.230Z,70.10
2017-12-10T01:55:05.006Z,70.90
2017-12-10T01:55:38.010Z,70.20
2017-12-10T01:56:11.811Z,70.00
2017-12-10T01:56:44.811Z,70.00
2017-12-10T01:57:17.806Z,69.80
2017-12-10T01:57:50.779Z,69.50
2017-12-10T01:58:23.766Z,69.70
2017-12-10T01:58:56.770Z,69.80
2017-12-10T01:59:30.525Z,70.00
2017-12-10T02:00:03.859Z,70.00
2017-12-10T02:00:36.857Z,70.00
2017-12-10T02:01:10.183Z,69.70
2017-12-10T02:01:43.523Z,69.70
2017-12-10T02:02:16.862Z,69.80
2017-12-10T02:02:50.610Z,69.70
2017-12-10T02:03:23.987Z,69.70
2017-12-10T02:03:57.892Z,69.80
2017-12-10T02:04:30.895Z,70.40
2017-12-10T02:05:04.664Z,69.90
2017-12-10T02:05:37.662Z,69.90
2017-12-10T02:06:11.429Z,69.80
2017-12-10T02:06:44.450Z,69.70
2017-12-10T02:07:17.449Z,69.40
2017-12-10T02:07:50.439Z,69.60
2017-12-10T02:08:23.498Z,69.60
2017-12-10T02:08:56.716Z,69.10
2017-12-10T02:09:29.711Z,69.20
2017-12-10T02:10:03.474Z,68.90
2017-12-10T02:10:36.473Z,68.90
2017-12-10T02:11:10.270Z,69.50
2017-12-10T02:11:44.026Z,69.30
2017-12-10T02:12:17.030Z,69.30
2017-12-10T02:12:50.602Z,69.20
2017-12-10T02:13:24.377Z,69.20
2017-12-10T02:13:57.444Z,69.20
2017-12-10T02:14:31.339Z,70.10
2017-12-10T02:15:04.325Z,69.60
2017-12-10T02:15:37.321Z,69.50
2017-12-10T02:16:11.087Z,69.50
2017-12-10T02:16:44.070Z,69.50
2017-12-10T02:17:17.157Z,69.60
2017-12-10T02:17:50.924Z,69.60
2017-12-10T02:18:23.919Z,69.60
2017-12-10T02:18:56.905Z,69.80
2017-12-10T02:19:30.662Z,69.40
2017-12-10T02:20:03.672Z,69.40
2017-12-10T02:20:37.421Z,69.40
2017-12-10T02:21:10.523Z,69.40
2017-12-10T02:21:43.523Z,69.50
2017-12-10T02:22:16.548Z,69.70
2017-12-10T02:22:49.573Z,69.60
2017-12-10T02:23:22.586Z,69.80
2017-12-10T02:23:55.575Z,69.40
2017-12-10T02:24:28.588Z,69.40
2017-12-10T02:25:05.262Z,69.30
2017-12-10T02:25:38.256Z,69.30
2017-12-10T02:26:11.246Z,69.60
2017-12-10T02:26:44.247Z,69.60
2017-12-10T02:27:17.230Z,69.80
2017-12-10T02:27:51.015Z,69.60
2017-12-10T02:28:24.786Z,69.60
2017-12-10T02:28:57.803Z,69.60
2017-12-10T02:29:30.793Z,70.00
2017-12-10T02:30:03.804Z,70.00
2017-12-10T02:30:36.803Z,69.60
2017-12-10T02:31:10.767Z,69.50
2017-12-10T02:31:43.744Z,69.50
2017-12-10T02:32:16.741Z,69.30
2017-12-10T02:32:50.837Z,69.80
2017-12-10T02:33:23.863Z,69.60
2017-12-10T02:33:56.876Z,69.70
2017-12-10T02:34:30.042Z,69.60
2017-12-10T02:35:03.025Z,69.40
2017-12-10T02:35:36.016Z,69.00
2017-12-10T02:36:08.997Z,69.30
2017-12-10T02:36:42.774Z,69.30
2017-12-10T02:37:15.784Z,69.10
2017-12-10T02:37:48.784Z,69.60
2017-12-10T02:38:21.785Z,70.10
2017-12-10T02:38:54.811Z,69.30
2017-12-10T02:39:27.823Z,69.30
2017-12-10T02:40:00.807Z,69.40
2017-12-10T02:40:33.808Z,69.30
2017-12-10T02:41:07.571Z,69.20
2017-12-10T02:41:40.569Z,69.20
2017-12-10T02:42:14.334Z,69.20
2017-12-10T02:42:47.343Z,69.10
2017-12-10T02:43:20.357Z,69.30
2017-12-10T02:43:53.345Z,69.10
2017-12-10T02:44:26.543Z,69.00
2017-12-10T02:44:59.548Z,69.20
2017-12-10T02:45:33.316Z,69.30
2017-12-10T02:46:06.307Z,69.30
2017-12-10T02:46:40.074Z,69.20
2017-12-10T02:47:13.061Z,69.20
2017-12-10T02:47:46.823Z,69.40
2017-12-10T02:48:19.816Z,69.20
2017-12-10T02:48:52.803Z,69.30
2017-12-10T02:49:26.583Z,69.10
2017-12-10T02:49:59.559Z,69.10
2017-12-10T02:50:32.548Z,69.10
2017-12-10T02:51:06.319Z,68.80
2017-12-10T02:51:39.298Z,68.70
2017-12-10T02:52:12.304Z,68.70
2017-12-10T02:52:45.290Z,68.80
2017-12-10T02:53:18.301Z,68.70
2017-12-10T02:53:51.293Z,68.60
2017-12-10T02:54:24.294Z,68.80
2017-12-10T02:54:57.354Z,68.50
2017-12-10T02:55:32.447Z,68.20
2017-12-10T02:56:05.442Z,68.10
2017-12-10T02:56:39.207Z,68.60
2017-12-10T02:57:12.199Z,68.20
2017-12-10T02:57:45.199Z,68.10
2017-12-10T02:58:18.962Z,68.10
2017-12-10T02:58:51.968Z,68.00
2017-12-10T02:59:24.967Z,68.10
2017-12-10T02:59:58.000Z,68.10
2017-12-10T03:00:31.759Z,68.20
2017-12-10T03:01:04.744Z,68.20
2017-12-10T03:01:37.739Z,68.40
2017-12-10T03:02:11.503Z,68.30
2017-12-10T03:02:44.495Z,68.30
2017-12-10T03:03:17.497Z,68.10
2017-12-10T03:03:50.503Z,67.90
2017-12-10T03:04:23.498Z,67.90
2017-12-10T03:04:56.502Z,68.20
2017-12-10T03:05:30.292Z,68.50
2017-12-10T03:06:04.050Z,68.30
2017-12-10T03:06:37.050Z,68.30
2017-12-10T03:07:10.819Z,68.80
2017-12-10T03:07:43.820Z,68.30
2017-12-10T03:08:17.578Z,68.60
2017-12-10T03:08:50.559Z,68.50
2017-12-10T03:09:23.537Z,68.30
2017-12-10T03:09:56.550Z,68.00
2017-12-10T03:10:29.541Z,68.20
2017-12-10T03:11:02.555Z,68.20
2017-12-10T03:11:35.540Z,67.90
2017-12-10T03:12:08.541Z,67.50
2017-12-10T03:12:42.310Z,67.50
2017-12-10T03:13:15.297Z,67.50
2017-12-10T03:13:49.109Z,67.40
2017-12-10T03:14:22.283Z,67.40
2017-12-10T03:14:56.030Z,67.40
2017-12-10T03:15:29.030Z,67.30
2017-12-10T03:16:02.819Z,67.50
2017-12-10T03:16:36.576Z,67.60
2017-12-10T03:17:09.577Z,67.60
2017-12-10T03:17:42.558Z,67.80
2017-12-10T03:18:17.184Z,67.40
2017-12-10T03:18:50.175Z,67.40
2017-12-10T03:19:23.169Z,67.30
2017-12-10T03:19:56.167Z,67.30
2017-12-10T03:20:29.158Z,67.50
2017-12-10T03:21:02.146Z,67.20
2017-12-10T03:21:36.650Z,67.30
2017-12-10T03:22:10.409Z,67.20
2017-12-10T03:22:43.401Z,67.20
2017-12-10T03:23:16.397Z,67.00
2017-12-10T03:23:50.156Z,67.40
2017-12-10T03:24:23.141Z,67.40
2017-12-10T03:24:56.142Z,67.40
2017-12-10T03:25:29.887Z,67.20
2017-12-10T03:26:02.899Z,67.20
2017-12-10T03:26:36.697Z,67.30
2017-12-10T03:27:09.699Z,67.30
2017-12-10T03:27:42.694Z,67.60
2017-12-10T03:28:15.683Z,67.60
2017-12-10T03:28:48.676Z,67.80
2017-12-10T03:29:22.426Z,67.80
2017-12-10T03:29:55.504Z,67.80
2017-12-10T03:30:28.508Z,67.70
2017-12-10T03:31:01.502Z,67.50
2017-12-10T03:31:35.263Z,67.40
2017-12-10T03:32:08.254Z,67.40
2017-12-10T03:32:42.007Z,67.50
2017-12-10T03:33:15.202Z,67.50
2017-12-10T03:33:48.187Z,67.50
2017-12-10T03:34:21.184Z,67.40
2017-12-10T03:34:55.091Z,67.50
2017-12-10T03:35:28.094Z,67.50
2017-12-10T03:36:01.094Z,67.40
2017-12-10T03:36:34.096Z,67.60
2017-12-10T03:37:07.870Z,67.10
2017-12-10T03:37:40.868Z,67.10
2017-12-10T03:38:14.627Z,66.50
2017-12-10T03:38:47.622Z,66.50
2017-12-10T03:39:21.392Z,66.50
2017-12-10T03:39:55.169Z,66.70
2017-12-10T03:40:28.156Z,66.70
2017-12-10T03:41:01.163Z,66.70
2017-12-10T03:41:34.169Z,67.30
2017-12-10T03:42:07.188Z,66.70
2017-12-10T03:42:40.176Z,66.80
2017-12-10T03:43:13.939Z,66.90
2017-12-10T03:43:46.923Z,66.90
2017-12-10T03:44:20.700Z,67.00
2017-12-10T03:44:53.697Z,66.90
2017-12-10T03:45:27.451Z,66.90
2017-12-10T03:46:00.548Z,66.90
2017-12-10T03:46:33.558Z,67.10
2017-12-10T03:47:07.363Z,67.10
2017-12-10T03:47:40.360Z,67.00
2017-12-10T03:48:13.403Z,66.90
2017-12-10T03:48:46.552Z,67.20
2017-12-10T03:49:19.542Z,67.00
2017-12-10T03:49:53.295Z,66.90
2017-12-10T03:50:26.290Z,66.80
2017-12-10T03:50:59.294Z,66.60
2017-12-10T03:51:33.038Z,66.60
2017-12-10T03:52:06.029Z,66.50
2017-12-10T03:52:39.068Z,66.90
2017-12-10T03:53:12.078Z,66.80
2017-12-10T03:53:45.068Z,66.70
2017-12-10T03:54:18.831Z,66.50
2017-12-10T03:54:52.174Z,66.50
2017-12-10T03:55:25.175Z,66.60
2017-12-10T03:55:58.172Z,66.60
2017-12-10T03:56:31.485Z,66.60
2017-12-10T03:57:04.474Z,66.50
2017-12-10T03:57:37.486Z,66.40
2017-12-10T03:58:10.839Z,66.40
2017-12-10T03:58:43.839Z,66.50
2017-12-10T03:59:16.829Z,67.10
2017-12-10T03:59:49.822Z,66.80
2017-12-10T04:00:23.911Z,66.50
2017-12-10T04:00:58.014Z,66.20
2017-12-10T04:01:31.774Z,66.00
2017-12-10T04:02:05.430Z,65.90
2017-12-10T04:02:39.086Z,65.70
2017-12-10T04:03:13.214Z,65.60
2017-12-10T04:03:46.190Z,65.60
2017-12-10T04:04:19.516Z,65.50
2017-12-10T04:04:52.504Z,65.40
2017-12-10T04:05:26.927Z,65.40
2017-12-10T04:05:59.932Z,65.40
2017-12-10T04:06:32.943Z,65.50
2017-12-10T04:07:05.939Z,65.50
2017-12-10T04:07:40.034Z,65.40
2017-12-10T04:08:13.822Z,65.60
2017-12-10T04:08:47.168Z,65.50
2017-12-10T04:09:20.158Z,66.10
2017-12-10T04:09:53.496Z,65.70
2017-12-10T04:10:26.526Z,65.40
2017-12-10T04:10:59.515Z,65.30
2017-12-10T04:11:33.927Z,64.90
2017-12-10T04:12:07.691Z,64.60
2017-12-10T04:12:40.695Z,64.60
2017-12-10T04:13:14.817Z,64.40
2017-12-10T04:13:48.164Z,64.40
2017-12-10T04:14:21.940Z,64.00
2017-12-10T04:14:54.943Z,64.00
2017-12-10T04:15:28.728Z,63.00
2017-12-10T04:16:02.490Z,62.90
2017-12-10T04:16:35.486Z,62.90
2017-12-10T04:17:09.581Z,62.00
2017-12-10T04:17:42.573Z,62.00
2017-12-10T04:18:16.356Z,63.20
2017-12-10T04:18:49.331Z,63.20
2017-12-10T04:19:23.083Z,63.00
2017-12-10T04:19:56.407Z,63.00
2017-12-10T04:20:30.164Z,63.10
2017-12-10T04:21:03.471Z,63.10
2017-12-10T04:21:37.223Z,63.50
2017-12-10T04:22:10.225Z,64.00
2017-12-10T04:22:43.210Z,63.60
2017-12-10T04:23:17.329Z,63.60
2017-12-10T04:23:50.315Z,63.60
2017-12-10T04:24:23.627Z,64.00
2017-12-10T04:24:57.277Z,64.10
2017-12-10T04:25:30.284Z,63.50
2017-12-10T04:26:03.288Z,63.90
2017-12-10T04:26:36.942Z,63.80
2017-12-10T04:27:09.930Z,63.60
2017-12-10T04:27:42.938Z,63.80
2017-12-10T04:28:16.700Z,63.80
2017-12-10T04:28:49.708Z,63.80
2017-12-10T04:29:23.467Z,64.30
2017-12-10T04:29:56.796Z,64.30
2017-12-10T04:30:29.781Z,64.10
2017-12-10T04:31:03.122Z,64.10
2017-12-10T04:31:36.107Z,64.10
2017-12-10T04:32:09.863Z,64.20
2017-12-10T04:32:42.870Z,64.20
2017-12-10T04:33:16.627Z,64.20
2017-12-10T04:33:49.649Z,64.20
2017-12-10T04:34:23.804Z,64.30
2017-12-10T04:34:57.133Z,64.30
2017-12-10T04:35:29.945Z,64.50
2017-12-10T04:36:02.945Z,64.70
2017-12-10T04:36:35.936Z,64.80
2017-12-10T04:37:10.365Z,65.40
2017-12-10T04:37:43.376Z,65.40
2017-12-10T04:38:16.371Z,65.70
2017-12-10T04:38:49.390Z,65.60
2017-12-10T04:39:22.388Z,65.40
2017-12-10T04:39:55.407Z,65.40
2017-12-10T04:40:29.166Z,65.70
2017-12-10T04:41:02.169Z,65.60
2017-12-10T04:41:35.159Z,65.70
2017-12-10T04:42:08.926Z,65.60
2017-12-10T04:42:42.695Z,65.80
2017-12-10T04:43:15.695Z,65.80
2017-12-10T04:43:48.708Z,64.90
2017-12-10T04:44:21.725Z,64.10
2017-12-10T04:44:54.723Z,64.00
2017-12-10T04:45:28.043Z,63.90
2017-12-10T04:46:01.695Z,63.90
2017-12-10T04:46:35.793Z,63.70
2017-12-10T04:47:09.559Z,63.90
2017-12-10T04:47:42.611Z,64.40
2017-12-10T04:48:15.619Z,64.20
2017-12-10T04:48:48.611Z,64.30
2017-12-10T04:49:22.737Z,64.00
2017-12-10T04:49:56.058Z,64.00
2017-12-10T04:50:29.064Z,63.80
2017-12-10T04:51:02.826Z,63.80
2017-12-10T04:51:35.826Z,63.80
2017-12-10T04:52:08.818Z,64.00
2017-12-10T04:52:42.150Z,64.10
2017-12-10T04:53:15.141Z,64.10
2017-12-10T04:53:48.134Z,64.00
2017-12-10T04:54:21.907Z,64.30
2017-12-10T04:54:55.266Z,64.20
2017-12-10T04:55:28.251Z,64.30
2017-12-10T04:56:01.774Z,64.30
2017-12-10T04:56:35.521Z,64.30
2017-12-10T04:57:09.182Z,64.30
2017-12-10T04:57:42.511Z,64.80
2017-12-10T04:58:15.518Z,64.70
2017-12-10T04:58:48.508Z,65.00
2017-12-10T04:59:21.840Z,65.20
2017-12-10T04:59:54.834Z,65.40
2017-12-10T05:00:28.951Z,65.20
2017-12-10T05:01:01.952Z,65.20
2017-12-10T05:01:35.281Z,64.90
2017-12-10T05:02:09.058Z,65.00
2017-12-10T05:02:42.380Z,65.00
2017-12-10T05:03:15.389Z,64.90
2017-12-10T05:03:48.711Z,65.20
2017-12-10T05:04:22.466Z,65.50
2017-12-10T05:04:55.461Z,65.40
2017-12-10T05:05:28.503Z,65.70
2017-12-10T05:06:01.504Z,65.70
2017-12-10T05:06:35.331Z,65.60
2017-12-10T05:07:09.018Z,65.80
2017-12-10T05:07:42.782Z,66.00
2017-12-10T05:08:16.107Z,66.00
2017-12-10T05:08:49.107Z,66.20
2017-12-10T05:09:22.134Z,66.10
2017-12-10T05:09:55.898Z,66.00
2017-12-10T05:10:28.917Z,66.00
2017-12-10T05:11:02.242Z,66.00
2017-12-10T05:11:35.573Z,65.90
2017-12-10T05:12:09.329Z,65.80
2017-12-10T05:12:42.325Z,65.90
2017-12-10T05:13:16.099Z,66.10
2017-12-10T05:13:49.086Z,66.10
2017-12-10T05:14:22.460Z,66.10
2017-12-10T05:14:55.790Z,66.00
2017-12-10T05:15:28.815Z,65.90
2017-12-10T05:16:01.851Z,66.10
2017-12-10T05:16:34.854Z,66.20
2017-12-10T05:17:09.368Z,66.40
2017-12-10T05:17:42.365Z,67.00
2017-12-10T05:18:16.141Z,66.50
2017-12-10T05:18:50.238Z,66.00
2017-12-10T05:19:23.241Z,66.50
2017-12-10T05:19:56.999Z,66.30
2017-12-10T05:20:30.334Z,66.40
2017-12-10T05:21:03.357Z,66.30
2017-12-10T05:21:36.352Z,66.10
2017-12-10T05:22:10.438Z,66.60
2017-12-10T05:22:44.542Z,66.40
2017-12-10T05:23:18.328Z,66.40
2017-12-10T05:23:52.086Z,66.60
2017-12-10T05:24:25.087Z,66.50
2017-12-10T05:24:58.430Z,66.40
2017-12-10T05:25:31.812Z,66.80
2017-12-10T05:26:04.850Z,66.30
2017-12-10T05:26:38.613Z,66.20
2017-12-10T05:27:11.610Z,66.20
2017-12-10T05:27:45.396Z,66.40
2017-12-10T05:28:19.151Z,66.40
2017-12-10T05:28:52.478Z,66.40
2017-12-10T05:29:26.566Z,66.30
2017-12-10T05:30:00.659Z,66.30
2017-12-10T05:30:35.423Z,66.30
2017-12-10T05:31:08.979Z,66.60
2017-12-10T05:31:42.734Z,66.80
2017-12-10T05:32:15.742Z,66.70
2017-12-10T05:32:49.515Z,66.80
2017-12-10T05:33:22.520Z,66.80
2017-12-10T05:33:55.547Z,67.10
2017-12-10T05:34:28.544Z,66.70
2017-12-10T05:35:02.311Z,67.50
2017-12-10T05:35:35.304Z,66.80
2017-12-10T05:36:08.429Z,67.10
2017-12-10T05:36:41.444Z,67.20
2017-12-10T05:37:14.480Z,67.10
2017-12-10T05:37:47.479Z,67.50
2017-12-10T05:38:20.494Z,67.50
2017-12-10T05:38:54.259Z,67.50
2017-12-10T05:39:27.256Z,67.50
2017-12-10T05:40:01.017Z,67.80
2017-12-10T05:40:34.377Z,67.70
2017-12-10T05:41:07.541Z,67.60
2017-12-10T05:41:40.923Z,68.00
2017-12-10T05:42:13.913Z,67.90
2017-12-10T05:42:46.924Z,67.60
2017-12-10T05:43:20.695Z,67.80
2017-12-10T05:43:53.689Z,67.70
2017-12-10T05:44:27.035Z,67.50
2017-12-10T05:45:00.027Z,67.50
2017-12-10T05:45:33.350Z,67.70
2017-12-10T05:46:06.674Z,67.90
2017-12-10T05:46:40.008Z,67.90
2017-12-10T05:47:14.462Z,67.80
2017-12-10T05:47:47.462Z,67.80
2017-12-10T05:48:20.443Z,67.90
2017-12-10T05:48:53.441Z,68.20
2017-12-10T05:49:26.484Z,68.10
2017-12-10T05:50:00.144Z,68.10
2017-12-10T05:50:33.477Z,68.40
2017-12-10T05:51:07.235Z,68.20
2017-12-10T05:51:40.228Z,68.20
2017-12-10T05:52:14.022Z,67.80
2017-12-10T05:52:47.789Z,67.70
2017-12-10T05:53:20.775Z,67.70
2017-12-10T05:53:53.771Z,67.80
2017-12-10T05:54:27.539Z,68.40
2017-12-10T05:55:00.854Z,68.30
2017-12-10T05:55:33.877Z,68.60
2017-12-10T05:56:06.871Z,68.60
2017-12-10T05:56:40.208Z,68.50
2017-12-10T05:57:13.231Z,68.50
2017-12-10T05:57:46.247Z,68.20
2017-12-10T05:58:19.583Z,67.80
2017-12-10T05:58:52.582Z,67.80
2017-12-10T05:59:26.340Z,68.00
2017-12-10T06:00:00.099Z,68.60
2017-12-10T06:00:33.424Z,68.30
2017-12-10T06:01:06.423Z,68.20
2017-12-10T06:01:39.427Z,68.40
2017-12-10T06:02:12.440Z,68.60
2017-12-10T06:02:45.470Z,68.60
2017-12-10T06:03:18.483Z,68.80
2017-12-10T06:03:51.486Z,68.70
2017-12-10T06:04:25.249Z,68.70
2017-12-10T06:04:58.251Z,68.70
2017-12-10T06:05:32.351Z,68.80
2017-12-10T06:06:06.948Z,68.50
2017-12-10T06:06:40.710Z,68.70
2017-12-10T06:07:13.717Z,68.30
2017-12-10T06:07:47.519Z,69.70
2017-12-10T06:08:21.277Z,68.90
2017-12-10T06:08:54.269Z,68.80
2017-12-10T06:09:28.369Z,68.70
2017-12-10T06:10:01.691Z,68.90
2017-12-10T06:10:34.693Z,69.10
2017-12-10T06:11:07.692Z,69.10
2017-12-10T06:11:40.700Z,69.50
2017-12-10T06:12:13.702Z,70.10
2017-12-10T06:12:47.253Z,69.80
2017-12-10T06:13:20.267Z,69.60
2017-12-10T06:13:53.283Z,69.90
2017-12-10T06:14:27.386Z,69.80
2017-12-10T06:15:01.159Z,69.90
2017-12-10T06:15:34.159Z,69.90
2017-12-10T06:16:07.922Z,69.70
2017-12-10T06:16:42.433Z,69.70
2017-12-10T06:17:15.767Z,69.70
2017-12-10T06:17:49.122Z,70.20
2017-12-10T06:18:22.897Z,70.40
2017-12-10T06:18:55.894Z,70.40
2017-12-10T06:19:28.903Z,70.20
2017-12-10T06:20:01.920Z,70.30
2017-12-10T06:20:35.339Z,70.70
2017-12-10T06:21:08.686Z,70.80
2017-12-10T06:21:42.455Z,70.60
2017-12-10T06:22:15.481Z,70.60
2017-12-10T06:22:48.495Z,70.70
2017-12-10T06:23:21.543Z,70.70
2017-12-10T06:23:54.545Z,70.90
2017-12-10T06:24:27.557Z,70.90
2017-12-10T06:25:01.683Z,71.00
2017-12-10T06:25:34.707Z,71.00
2017-12-10T06:26:07.716Z,70.60
2017-12-10T06:26:41.804Z,70.60
2017-12-10T06:27:15.918Z,70.60
2017-12-10T06:27:48.941Z,70.60
2017-12-10T06:28:21.954Z,70.80
2017-12-10T06:28:55.715Z,71.00
2017-12-10T06:29:29.069Z,71.00
2017-12-10T06:30:41.542Z,71.00
2017-12-10T06:31:15.639Z,71.20
2017-12-10T06:31:49.322Z,71.20
2017-12-10T06:32:23.446Z,71.20
2017-12-10T06:32:56.449Z,71.90
2017-12-10T06:33:29.490Z,71.10
2017-12-10T06:34:02.505Z,71.20
2017-12-10T06:34:35.504Z,71.40
2017-12-10T06:35:09.286Z,71.30
2017-12-10T06:35:42.285Z,71.30
2017-12-10T06:36:16.061Z,71.60
2017-12-10T06:36:49.082Z,71.60
2017-12-10T06:37:22.418Z,71.70
2017-12-10T06:37:56.190Z,71.60
2017-12-10T06:38:29.232Z,71.50
2017-12-10T06:39:02.231Z,71.40
2017-12-10T06:39:35.228Z,71.60
2017-12-10T06:40:10.106Z,71.90
2017-12-10T06:40:43.102Z,71.90
2017-12-10T06:41:16.118Z,71.70
2017-12-10T06:41:49.129Z,71.80
2017-12-10T06:42:22.115Z,72.00
2017-12-10T06:42:55.117Z,71.70
2017-12-10T06:43:28.116Z,71.50
2017-12-10T06:44:01.130Z,71.40
2017-12-10T06:44:34.135Z,71.50
2017-12-10T06:45:07.134Z,71.80
2017-12-10T06:45:40.155Z,71.70
2017-12-10T06:46:13.477Z,71.80
2017-12-10T06:46:47.236Z,71.60
2017-12-10T06:47:20.234Z,71.60
2017-12-10T06:47:53.557Z,71.40
2017-12-10T06:48:26.571Z,71.40
2017-12-10T06:48:59.590Z,71.30
2017-12-10T06:49:32.617Z,71.30
2017-12-10T06:50:05.627Z,71.50
2017-12-10T06:50:39.382Z,71.90
2017-12-10T06:51:12.412Z,71.70
2017-12-10T06:51:46.342Z,71.80
2017-12-10T06:52:19.350Z,71.70
2017-12-10T06:52:53.111Z,71.70
2017-12-10T06:53:26.114Z,71.70
2017-12-10T06:53:59.458Z,71.60
2017-12-10T06:54:32.450Z,71.90
2017-12-10T06:55:05.443Z,71.80
2017-12-10T06:55:39.267Z,71.70
2017-12-10T06:56:12.262Z,71.60
2017-12-10T06:56:45.297Z,71.50
2017-12-10T06:57:19.052Z,71.60
2017-12-10T06:57:52.401Z,71.50
2017-12-10T06:58:25.392Z,71.50
2017-12-10T06:58:58.415Z,71.50
2017-12-10T06:59:31.990Z,71.30
2017-12-10T07:00:04.976Z,71.30
2017-12-10T07:00:38.762Z,71.50
2017-12-10T07:01:12.870Z,71.50
2017-12-10T07:01:46.629Z,71.40
2017-12-10T07:02:19.636Z,71.40
2017-12-10T07:02:53.409Z,71.60
2017-12-10T07:03:26.401Z,71.60
2017-12-10T07:04:00.537Z,71.30
2017-12-10T07:04:33.533Z,71.90
2017-12-10T07:05:06.862Z,71.20
2017-12-10T07:05:40.546Z,71.20
2017-12-10T07:06:14.315Z,71.20
2017-12-10T07:06:47.327Z,71.20
2017-12-10T07:07:20.650Z,70.90
2017-12-10T07:07:54.322Z,71.20
2017-12-10T07:08:27.325Z,71.30
2017-12-10T07:09:00.701Z,71.40
2017-12-10T07:09:34.038Z,71.40